This is the latest recevied weather packets stored in our database for station/object DG7YEO-13. If no packets are shown the sender has not sent any weather packets the latest 10 day(s).
| Time | Temp. | Humidity | Pressure | Rain* | Wind** | Luminosity | Snow |
|---|---|---|---|---|---|---|---|
| 1777489325 | 14.44° C | 38% | 1027.2 hPa | 0 mm | - | - | - |
| 1777488425 | 15° C | 37% | 1027 hPa | 0 mm | - | - | - |
| 1777487524 | 15° C | 37% | 1026.9 hPa | 0 mm | - | - | - |
| 1777486625 | 15.56° C | 36% | 1026.7 hPa | 0 mm | - | - | - |
| 1777485725 | 16.11° C | 35% | 1026.6 hPa | 0 mm | - | - | - |
| 1777484825 | 16.67° C | 35% | 1026.4 hPa | 0 mm | - | - | - |
| 1777483925 | 16.67° C | 33% | 1026.4 hPa | 0 mm | - | - | - |
| 1777483025 | 17.22° C | 33% | 1026.4 hPa | 0 mm | - | - | - |
| 1777482125 | 17.22° C | 33% | 1026.4 hPa | 0 mm | - | - | - |
| 1777481226 | 17.78° C | 32% | 1026.4 hPa | 0 mm | - | - | - |
| 1777480325 | 17.78° C | 31% | 1026.5 hPa | 0 mm | - | - | - |
| 1777479425 | 18.33° C | 31% | 1026.4 hPa | 0 mm | - | - | - |
| 1777478525 | 18.33° C | 30% | 1026.4 hPa | 0 mm | - | - | - |
| 1777477625 | 18.33° C | 30% | 1026.4 hPa | 0 mm | - | - | - |
| 1777476726 | 18.33° C | 30% | 1026.4 hPa | 0 mm | - | - | - |
| 1777475825 | 18.33° C | 30% | 1026.5 hPa | 0 mm | - | - | - |
| 1777474926 | 18.89° C | 30% | 1026.6 hPa | 0 mm | - | - | - |
| 1777474025 | 18.89° C | 29% | 1026.7 hPa | 0 mm | - | - | - |
| 1777473125 | 18.89° C | 29% | 1026.6 hPa | 0 mm | - | - | - |
| 1777472225 | 18.89° C | 29% | 1026.7 hPa | 0 mm | - | - | - |
| 1777471325 | 18.89° C | 29% | 1026.5 hPa | 0 mm | - | - | - |
| 1777470425 | 18.33° C | 28% | 1026.7 hPa | 0 mm | - | - | - |
| 1777469526 | 18.33° C | 27% | 1026.7 hPa | 0 mm | - | - | - |
| 1777468625 | 18.89° C | 28% | 1026.7 hPa | 0 mm | - | - | - |
| 1777467725 | 18.33° C | 28% | 1026.8 hPa | 0 mm | - | - | - |
* Rain latest hour (hover to see other rain measurements)
** Current wind speed in m/s (hover to see current wind gust speed)